Time;durP1;ratioP1;P1;durP2;ratioP2;P2;SDS_P1;SDS_P2;PMS_P1;PMS_P2;Temp;Humidity;BMP_temperature;BMP_pressure;BME280_temperature;BME280_humidity;BME280_pressure;Samples;Min_cycle;Max_cycle;Signal;HPM_P1;HPM_P2
2023/11/10 00:00:50;;;;;;;3.17;0.82;;;;;;;5.08;76.60;97722.63;4981411;28;20472;-50
2023/11/10 00:03:17;;;;;;;2.30;0.65;;;;;;;5.05;77.45;97715.84;4986316;28;20053;-44
2023/11/10 00:05:44;;;;;;;1.95;0.65;;;;;;;5.06;76.64;97722.66;4982141;28;20050;-48
2023/11/10 00:08:13;;;;;;;5.25;0.82;;;;;;;5.06;76.56;97729.53;4981536;28;20048;-45
2023/11/10 00:10:40;;;;;;;1.15;0.20;;;;;;;5.05;76.98;97727.81;4977364;28;20057;-44
2023/11/10 00:13:08;;;;;;;5.53;0.50;;;;;;;5.04;76.57;97719.28;4982103;28;20057;-41
2023/11/10 00:15:35;;;;;;;1.35;0.40;;;;;;;5.04;76.46;97724.41;4983156;28;20058;-45
2023/11/10 00:18:02;;;;;;;1.67;0.60;;;;;;;5.04;76.94;97724.41;4980376;28;20456;-47
2023/11/10 00:20:29;;;;;;;4.68;0.95;;;;;;;5.01;76.92;97725.28;4982252;28;20513;-42
2023/11/10 00:22:56;;;;;;;0.80;0.55;;;;;;;5.03;77.16;97727.81;4977000;28;20129;-44
2023/11/10 00:25:23;;;;;;;2.08;0.80;;;;;;;5.02;76.67;97721.00;4981732;28;20053;-45
2023/11/10 00:27:50;;;;;;;4.40;0.93;;;;;;;5.01;77.21;97714.19;4979611;28;20058;-50
2023/11/10 00:30:19;;;;;;;3.15;0.60;;;;;;;5.00;76.88;97718.47;4980537;28;20499;-52
2023/11/10 00:32:46;;;;;;;4.60;1.02;;;;;;;4.99;77.41;97715.94;4978776;28;20054;-43
2023/11/10 00:35:13;;;;;;;6.18;0.65;;;;;;;4.98;77.46;97717.66;4976841;28;20053;-41
2023/11/10 00:37:39;;;;;;;8.57;1.70;;;;;;;4.98;77.25;97719.38;4977999;28;20053;-46
2023/11/10 00:40:07;;;;;;;8.95;1.33;;;;;;;4.98;76.92;97711.69;4980138;28;20685;-45
2023/11/10 00:42:33;;;;;;;5.60;0.95;;;;;;;4.98;76.96;97714.25;4979615;28;20063;-39
2023/11/10 00:45:00;;;;;;;3.78;0.50;;;;;;;4.99;77.56;97718.50;4983387;28;20046;-47
2023/11/10 00:47:27;;;;;;;5.80;0.80;;;;;;;4.99;77.89;97718.50;4983160;28;20680;-44
2023/11/10 00:49:54;;;;;;;9.23;1.25;;;;;;;5.02;77.22;97721.00;4979653;28;20343;-41
2023/11/10 00:52:21;;;;;;;3.03;0.93;;;;;;;5.03;77.91;97715.00;4976399;28;20046;-43
2023/11/10 00:54:48;;;;;;;5.95;0.82;;;;;;;5.03;76.98;97707.31;4978820;28;20130;-51
2023/11/10 00:57:15;;;;;;;3.70;1.05;;;;;;;5.04;77.12;97709.03;4981639;28;20500;-45
2023/11/10 00:59:42;;;;;;;3.63;0.85;;;;;;;5.06;77.71;97709.81;4982769;28;20105;-44
2023/11/10 01:02:09;;;;;;;1.63;0.70;;;;;;;5.07;78.09;97705.53;4979626;28;20047;-45
2023/11/10 01:04:36;;;;;;;1.90;0.50;;;;;;;5.09;77.70;97707.22;4983852;28;20050;-46
2023/11/10 01:07:03;;;;;;;6.38;1.20;;;;;;;5.09;77.74;97701.22;4979322;28;20049;-42
2023/11/10 01:09:29;;;;;;;3.17;0.75;;;;;;;5.10;77.93;97703.75;4977212;28;20053;-41
2023/11/10 01:11:56;;;;;;;5.80;1.00;;;;;;;5.12;77.92;97702.03;4976767;28;20042;-42
2023/11/10 01:14:23;;;;;;;9.10;1.13;;;;;;;5.11;77.71;97690.06;4979974;28;20045;-50
2023/11/10 01:16:50;;;;;;;11.75;2.25;;;;;;;5.14;77.54;97694.31;4983331;28;20607;-50
2023/11/10 01:19:17;;;;;;;4.95;1.27;;;;;;;5.14;78.12;97695.13;4978727;28;20137;-48
2023/11/10 01:21:46;;;;;;;5.28;1.02;;;;;;;5.14;77.81;97695.13;4984122;28;20054;-50
2023/11/10 01:24:16;;;;;;;5.10;0.95;;;;;;;5.14;77.68;97704.56;4978222;28;20500;-45
2023/11/10 01:26:43;;;;;;;7.05;1.25;;;;;;;5.16;78.30;97707.09;4982401;28;20042;-45
2023/11/10 01:29:20;;;;;;;4.22;0.82;;;;;;;5.18;77.73;97705.34;4983549;28;20053;-48
2023/11/10 01:31:47;;;;;;;7.70;1.35;;;;;;;5.18;77.78;97701.06;4973286;28;20039;-47
2023/11/10 01:34:16;;;;;;;4.15;0.98;;;;;;;5.19;77.51;97696.75;4977803;28;20719;-39
2023/11/10 01:36:45;;;;;;;4.68;0.93;;;;;;;5.20;78.20;97708.75;4982886;28;20130;-44
2023/11/10 01:39:12;;;;;;;4.13;0.75;;;;;;;5.19;77.87;97707.03;4978128;28;20496;-49
2023/11/10 01:41:40;;;;;;;1.42;0.90;;;;;;;5.19;78.09;97707.88;4981912;28;20140;-44
2023/11/10 01:44:07;;;;;;;1.13;0.60;;;;;;;5.21;78.53;97707.84;4979747;28;20109;-46
2023/11/10 01:46:52;;;;;;;6.25;1.45;;;;;;;5.20;78.08;97703.59;4979579;28;20053;-43
2023/11/10 01:49:21;;;;;;;4.15;0.43;;;;;;;5.23;78.07;97713.78;4984554;28;20427;-41
2023/11/10 01:51:51;;;;;;;5.85;1.15;;;;;;;5.26;78.15;97703.47;4971155;28;20047;-48
2023/11/10 01:54:25;;;;;;;4.50;0.85;;;;;;;5.28;79.01;97701.72;4982465;28;20148;-44
2023/11/10 01:56:53;;;;;;;5.43;0.82;;;;;;;5.34;78.69;97695.63;4977581;28;20050;-46
2023/11/10 01:59:20;;;;;;;4.00;0.90;;;;;;;5.40;78.44;97698.06;4977311;28;20077;-48
2023/11/10 02:01:50;;;;;;;4.13;0.80;;;;;;;5.46;79.30;97694.53;4980383;28;20069;-46
2023/11/10 02:04:18;;;;;;;1.05;0.63;;;;;;;5.50;78.46;97697.03;4971741;28;20050;-45
2023/11/10 02:06:48;;;;;;;4.55;0.52;;;;;;;5.58;79.38;97701.16;4982113;28;20046;-44
2023/11/10 02:09:15;;;;;;;4.13;1.23;;;;;;;5.61;78.40;97704.50;4977263;28;20074;-47
2023/11/10 02:11:43;;;;;;;7.43;1.25;;;;;;;5.66;79.15;97712.97;4979399;28;20054;-48
2023/11/10 02:14:11;;;;;;;6.15;0.75;;;;;;;5.71;78.48;97694.88;4979055;28;20046;-47
2023/11/10 02:16:39;;;;;;;3.22;0.65;;;;;;;5.75;77.98;97701.63;4986376;28;20046;-41
2023/11/10 02:19:13;;;;;;;5.13;0.75;;;;;;;5.80;79.02;97704.13;4980915;28;20129;-49
2023/11/10 02:21:40;;;;;;;6.20;1.50;;;;;;;5.82;78.72;97702.38;4979023;28;20050;-43
2023/11/10 02:24:10;;;;;;;6.63;0.95;;;;;;;5.88;78.21;97707.38;4980814;28;20046;-47
2023/11/10 02:26:37;;;;;;;7.18;1.13;;;;;;;5.91;79.25;97702.16;4974342;28;20387;-44
2023/11/10 02:29:03;;;;;;;3.40;1.50;;;;;;;5.95;78.18;97696.97;4979684;28;20046;-44
2023/11/10 02:31:30;;;;;;;6.72;0.85;;;;;;;5.99;78.71;97696.03;4976011;28;20046;-45
2023/11/10 02:33:58;;;;;;;8.50;1.42;;;;;;;6.00;78.35;97690.00;4976004;28;20134;-46
2023/11/10 02:36:28;;;;;;;3.15;1.10;;;;;;;6.01;78.32;97686.56;4982136;28;20042;-42
2023/11/10 02:38:56;;;;;;;7.88;1.92;;;;;;;6.03;78.60;97689.94;4982207;28;20146;-41
2023/11/10 02:41:22;;;;;;;5.75;2.20;;;;;;;6.04;77.91;97691.66;4977811;28;20043;-45
2023/11/10 02:43:49;;;;;;;2.80;0.82;;;;;;;6.02;78.44;97683.09;4974971;28;20121;-40
2023/11/10 02:46:15;;;;;;;4.95;0.93;;;;;;;6.04;78.28;97686.50;4979824;28;20467;-43
2023/11/10 02:48:42;;;;;;;3.55;0.73;;;;;;;6.03;78.96;97689.94;4976664;28;20089;-43
2023/11/10 02:51:09;;;;;;;8.38;0.82;;;;;;;6.03;77.86;97687.34;4979124;28;20116;-44
2023/11/10 02:53:36;;;;;;;4.93;0.73;;;;;;;6.04;79.04;97686.50;4981542;28;20050;-46
2023/11/10 02:56:03;;;;;;;5.63;0.88;;;;;;;6.07;79.42;97676.16;4975751;28;20101;-43
2023/11/10 02:58:30;;;;;;;3.50;0.95;;;;;;;6.10;78.92;97676.09;4985477;28;20046;-46
2023/11/10 03:00:57;;;;;;;3.97;0.68;;;;;;;6.12;79.35;97669.19;4981379;28;20074;-47
2023/11/10 03:03:24;;;;;;;3.92;0.65;;;;;;;6.17;78.48;97675.09;4959847;28;20053;-48
2023/11/10 03:05:52;;;;;;;4.72;1.27;;;;;;;6.19;78.56;97669.91;4968937;28;20051;-50
2023/11/10 03:08:18;;;;;;;5.10;1.15;;;;;;;6.22;79.04;97669.00;4977123;28;20496;-47
2023/11/10 03:10:46;;;;;;;8.10;1.05;;;;;;;6.23;79.69;97670.66;4978361;28;20055;-42
2023/11/10 03:13:12;;;;;;;5.95;0.93;;;;;;;6.26;79.55;97665.47;4981296;28;20046;-49
2023/11/10 03:15:39;;;;;;;2.60;0.60;;;;;;;6.27;79.63;97662.84;4979094;28;20058;-46
2023/11/10 03:18:06;;;;;;;3.72;0.85;;;;;;;6.29;78.76;97670.53;4982833;28;20718;-43
2023/11/10 03:20:33;;;;;;;5.85;1.00;;;;;;;6.30;79.33;97672.22;4973218;28;20057;-48
2023/11/10 03:22:59;;;;;;;3.70;0.73;;;;;;;6.32;78.10;97670.47;4979470;28;20053;-47
2023/11/10 03:25:27;;;;;;;3.35;1.20;;;;;;;6.34;79.29;97673.84;4976451;28;20050;-40
2023/11/10 03:27:54;;;;;;;3.38;0.70;;;;;;;6.37;78.91;97680.63;4983643;28;20050;-46
2023/11/10 03:30:20;;;;;;;3.58;0.75;;;;;;;6.36;78.16;97674.66;4980333;28;20130;-48
2023/11/10 03:32:47;;;;;;;3.88;0.90;;;;;;;6.40;78.33;97680.56;4982788;28;20047;-45
2023/11/10 03:35:14;;;;;;;4.80;0.80;;;;;;;6.41;80.00;97667.66;4971483;28;20042;-44
2023/11/10 03:37:40;;;;;;;1.27;0.55;;;;;;;6.42;79.39;97671.91;4977971;28;20043;-44
2023/11/10 03:40:09;;;;;;;9.77;1.02;;;;;;;6.43;78.36;97663.31;4983874;28;20050;-47
2023/11/10 03:42:36;;;;;;;2.85;0.85;;;;;;;6.42;79.32;97661.63;4983608;28;20138;-43
2023/11/10 03:45:03;;;;;;;4.45;0.60;;;;;;;6.40;78.95;97658.28;4981721;28;20050;-44
2023/11/10 03:47:30;;;;;;;8.18;0.93;;;;;;;6.38;78.41;97660.00;4978427;28;20054;-42
2023/11/10 03:49:57;;;;;;;3.50;0.70;;;;;;;6.39;78.42;97661.69;4978277;28;20540;-45
2023/11/10 03:52:24;;;;;;;4.07;0.82;;;;;;;6.39;78.95;97656.56;4982479;28;20057;-43
2023/11/10 03:54:50;;;;;;;3.30;0.95;;;;;;;6.41;79.29;97656.53;4975854;28;20046;-46
2023/11/10 03:57:17;;;;;;;6.43;1.02;;;;;;;6.41;79.40;97659.94;4978262;28;20133;-46
2023/11/10 03:59:44;;;;;;;2.22;1.00;;;;;;;6.44;79.06;97651.31;4974430;28;20105;-43
2023/11/10 04:02:11;;;;;;;5.85;0.70;;;;;;;6.47;79.82;97660.66;4976074;28;20058;-40
2023/11/10 04:04:37;;;;;;;6.22;1.05;;;;;;;6.48;79.29;97652.91;4985831;28;20485;-42
2023/11/10 04:07:04;;;;;;;4.93;1.02;;;;;;;6.52;80.17;97651.13;4983978;28;20078;-48
2023/11/10 04:09:34;;;;;;;5.88;1.20;;;;;;;6.54;79.19;97644.22;4982302;28;20060;-42
2023/11/10 04:12:01;;;;;;;3.13;0.80;;;;;;;6.55;79.58;97640.75;4983536;28;20057;-45
2023/11/10 04:14:28;;;;;;;4.90;1.17;;;;;;;6.54;78.98;97639.91;4984058;28;20047;-41
2023/11/10 04:16:56;;;;;;;6.72;1.05;;;;;;;6.55;78.60;97638.16;4973963;28;20050;-45
2023/11/10 04:19:22;;;;;;;8.82;0.73;;;;;;;6.53;79.94;97642.53;4983592;28;20062;-45
2023/11/10 04:21:49;;;;;;;6.45;0.88;;;;;;;6.54;78.68;97646.78;4986095;28;20243;-43
2023/11/10 04:24:17;;;;;;;4.03;0.85;;;;;;;6.55;79.25;97640.75;4979511;28;20055;-46
2023/11/10 04:26:45;;;;;;;6.28;0.93;;;;;;;6.55;79.08;97639.03;4980339;28;20051;-45
2023/11/10 04:29:12;;;;;;;9.27;0.77;;;;;;;6.55;79.55;97643.31;4988733;28;20073;-45
2023/11/10 04:31:40;;;;;;;2.47;0.75;;;;;;;6.55;79.19;97640.75;4986106;28;20065;-41
2023/11/10 04:34:08;;;;;;;3.08;0.95;;;;;;;6.55;80.00;97640.75;4982234;28;20109;-42
2023/11/10 04:36:39;;;;;;;6.55;1.75;;;;;;;6.51;79.88;97644.28;4978155;28;20546;-40
2023/11/10 04:39:07;;;;;;;2.47;0.57;;;;;;;6.48;80.26;97644.38;4983735;28;20066;-48
2023/11/10 04:41:34;;;;;;;6.15;0.90;;;;;;;6.47;78.59;97645.25;4984535;28;20046;-39
2023/11/10 04:44:01;;;;;;;5.28;0.55;;;;;;;6.47;79.14;97652.97;4984772;28;20173;-44
2023/11/10 04:46:28;;;;;;;3.83;0.80;;;;;;;6.47;80.06;97652.97;4986426;28;20056;-40
2023/11/10 04:48:55;;;;;;;7.53;1.15;;;;;;;6.47;78.88;97647.81;4973752;28;20732;-45
2023/11/10 04:51:21;;;;;;;6.05;0.90;;;;;;;6.47;80.17;97647.81;4986895;28;20105;-45
2023/11/10 04:53:48;;;;;;;6.07;0.95;;;;;;;6.46;78.93;97643.56;4988210;28;20064;-43
2023/11/10 04:56:15;;;;;;;3.95;0.93;;;;;;;6.46;79.39;97635.84;4977653;28;20066;-41
2023/11/10 04:58:44;;;;;;;3.47;1.13;;;;;;;6.46;79.80;97635.84;4983972;28;20137;-42
2023/11/10 05:01:11;;;;;;;5.45;0.88;;;;;;;6.42;79.37;97635.91;4973132;28;20490;-43
2023/11/10 05:03:38;;;;;;;4.20;0.60;;;;;;;6.40;79.48;97632.56;4980732;28;20094;-47
2023/11/10 05:06:05;;;;;;;7.20;1.02;;;;;;;6.36;78.66;97635.22;4980081;28;20051;-49
2023/11/10 05:08:33;;;;;;;6.65;1.17;;;;;;;6.33;78.32;97643.00;4978162;28;20072;-43
2023/11/10 05:11:00;;;;;;;6.03;0.95;;;;;;;6.29;79.11;97648.22;4978346;28;20054;-41
2023/11/10 05:13:26;;;;;;;2.95;1.80;;;;;;;6.25;79.20;97648.34;4981542;28;22765;-44
2023/11/10 05:15:53;;;;;;;3.78;0.63;;;;;;;6.22;79.30;97649.28;4977957;28;20054;-46
2023/11/10 05:18:23;;;;;;;3.92;1.10;;;;;;;6.21;80.09;97646.75;4981380;28;20050;-43
2023/11/10 05:20:55;;;;;;;2.08;0.90;;;;;;;6.17;79.10;97644.22;4984961;28;20530;-42
2023/11/10 05:23:21;;;;;;;4.00;0.80;;;;;;;6.14;78.32;97640.88;4979920;28;20161;-48
2023/11/10 05:25:49;;;;;;;2.08;0.50;;;;;;;6.10;79.05;97640.13;4979212;28;20046;-38
2023/11/10 05:28:16;;;;;;;4.55;0.63;;;;;;;6.10;78.67;97642.69;4978906;28;20093;-46
2023/11/10 05:30:42;;;;;;;4.60;0.82;;;;;;;6.06;78.58;97633.38;4982987;28;20440;-46
2023/11/10 05:33:09;;;;;;;2.40;0.63;;;;;;;6.04;79.08;97624.81;4980768;28;20105;-46
2023/11/10 05:35:36;;;;;;;3.13;0.57;;;;;;;6.00;78.86;97628.31;4979364;28;20797;-47
2023/11/10 05:38:03;;;;;;;2.28;0.68;;;;;;;5.96;78.39;97626.69;4977729;28;20053;-45
2023/11/10 05:40:30;;;;;;;5.63;0.80;;;;;;;5.92;79.34;97631.91;4978319;28;20050;-43
2023/11/10 05:42:57;;;;;;;3.85;1.02;;;;;;;5.89;79.17;97631.16;4979611;28;20050;-42
2023/11/10 05:45:23;;;;;;;4.75;0.60;;;;;;;5.85;78.91;97627.81;4972531;28;20057;-42
2023/11/10 05:47:50;;;;;;;2.55;0.70;;;;;;;5.81;79.21;97623.59;4978179;28;20050;-48
2023/11/10 05:50:17;;;;;;;8.43;1.02;;;;;;;5.77;78.59;97627.13;4979791;28;20082;-46
2023/11/10 05:52:44;;;;;;;3.05;1.20;;;;;;;5.75;79.48;97628.88;4980716;28;20137;-42
2023/11/10 05:55:12;;;;;;;2.60;0.70;;;;;;;5.71;79.02;97627.28;4974381;28;20057;-46
2023/11/10 05:57:38;;;;;;;6.07;2.10;;;;;;;5.64;79.18;97627.38;4981178;28;20053;-44
2023/11/10 06:00:07;;;;;;;3.70;1.10;;;;;;;5.61;79.63;97637.72;4975210;28;20386;-38
2023/11/10 06:02:34;;;;;;;3.33;0.95;;;;;;;5.58;78.32;97637.81;4983251;28;20050;-48
2023/11/10 06:05:04;;;;;;;2.35;0.70;;;;;;;5.55;78.48;97632.75;4981501;28;20105;-41
2023/11/10 06:07:31;;;;;;;2.45;0.80;;;;;;;5.53;78.91;97629.34;4975047;28;20053;-51
2023/11/10 06:09:58;;;;;;;2.17;0.90;;;;;;;5.51;79.69;97637.06;4976695;28;20515;-43
2023/11/10 06:12:25;;;;;;;3.95;0.82;;;;;;;5.50;78.92;97639.66;4976976;28;20081;-47
2023/11/10 06:14:51;;;;;;;2.78;0.60;;;;;;;5.48;78.36;97638.88;4987293;28;20388;-46
2023/11/10 06:17:18;;;;;;;6.82;0.98;;;;;;;5.46;78.93;97627.78;4980355;28;20109;-47
2023/11/10 06:19:45;;;;;;;3.50;0.88;;;;;;;5.44;79.13;97624.41;4986647;28;20046;-47
2023/11/10 06:22:12;;;;;;;3.28;0.77;;;;;;;5.41;78.99;97633.03;4980539;28;20061;-44
2023/11/10 06:24:39;;;;;;;3.25;1.02;;;;;;;5.39;78.61;97627.06;4988108;28;20062;-44
2023/11/10 06:27:06;;;;;;;4.63;0.73;;;;;;;5.37;78.85;97633.97;4984902;28;20050;-45
2023/11/10 06:29:32;;;;;;;5.50;0.85;;;;;;;5.35;78.79;97626.31;4978426;28;20137;-43
2023/11/10 06:31:59;;;;;;;3.38;1.23;;;;;;;5.34;79.27;97629.72;4976548;28;20058;-41
2023/11/10 06:34:29;;;;;;;6.85;1.25;;;;;;;5.30;78.67;97622.97;4978059;28;20042;-45
2023/11/10 06:36:56;;;;;;;6.30;1.75;;;;;;;5.29;78.67;97631.53;4983942;28;20085;-47
2023/11/10 06:39:23;;;;;;;4.22;1.05;;;;;;;5.27;79.93;97638.44;4980270;28;20055;-44
2023/11/10 06:41:50;;;;;;;5.78;1.33;;;;;;;5.25;78.90;97632.50;4980209;28;20049;-45
2023/11/10 06:44:19;;;;;;;3.33;1.00;;;;;;;5.23;79.88;97631.66;4982217;28;20046;-44
2023/11/10 06:46:46;;;;;;;3.83;1.00;;;;;;;5.24;79.51;97643.63;4981573;28;20412;-47
2023/11/10 06:49:14;;;;;;;5.38;1.00;;;;;;;5.22;78.70;97637.69;4976158;28;20470;-49
2023/11/10 06:51:40;;;;;;;3.83;1.20;;;;;;;5.20;79.22;97642.00;4978142;28;20086;-46
2023/11/10 06:54:07;;;;;;;4.93;1.17;;;;;;;5.16;78.95;97641.22;4981468;28;20752;-53
2023/11/10 06:56:34;;;;;;;3.95;1.00;;;;;;;5.16;78.76;97645.50;4977573;28;20050;-43
2023/11/10 06:59:01;;;;;;;3.97;2.38;;;;;;;5.13;79.19;97652.38;4978995;28;20132;-43
2023/11/10 07:01:28;;;;;;;4.50;1.60;;;;;;;5.13;79.29;97652.38;4982371;28;20541;-44
2023/11/10 07:03:55;;;;;;;8.90;1.58;;;;;;;5.12;78.79;97666.09;4976257;28;20703;-45
2023/11/10 07:06:22;;;;;;;6.13;1.77;;;;;;;5.11;79.58;97664.41;4976631;28;20057;-44
2023/11/10 07:08:49;;;;;;;5.47;1.45;;;;;;;5.11;79.82;97666.13;4978238;28;21977;-42
2023/11/10 07:11:16;;;;;;;5.10;1.95;;;;;;;5.07;78.82;97673.00;4973349;28;20043;-45
2023/11/10 07:13:43;;;;;;;6.60;2.95;;;;;;;5.04;79.58;97678.22;4979133;28;20735;-44
2023/11/10 07:16:10;;;;;;;7.88;2.78;;;;;;;5.01;78.96;97683.41;4979237;28;20042;-48
2023/11/10 07:18:37;;;;;;;7.53;2.50;;;;;;;5.00;78.74;97689.44;4977414;28;20054;-47
2023/11/10 07:21:04;;;;;;;6.18;2.75;;;;;;;4.97;78.41;97697.16;4981376;28;20133;-42
2023/11/10 07:23:30;;;;;;;8.25;2.30;;;;;;;4.97;79.50;97694.59;4978975;28;20484;-45
2023/11/10 07:25:57;;;;;;;6.95;2.47;;;;;;;4.96;79.49;97706.56;4974223;28;20544;-43
2023/11/10 07:28:24;;;;;;;7.13;1.55;;;;;;;4.95;79.31;97704.88;4983028;28;20053;-44
2023/11/10 07:30:51;;;;;;;5.55;1.80;;;;;;;4.97;79.10;97707.44;4978964;28;20511;-46
2023/11/10 07:33:18;;;;;;;5.43;1.70;;;;;;;4.97;78.89;97712.56;4974300;28;20051;-45
2023/11/10 07:35:44;;;;;;;4.25;1.50;;;;;;;4.98;79.31;97709.97;4976206;28;20055;-46
2023/11/10 07:38:11;;;;;;;4.00;1.30;;;;;;;5.03;79.20;97722.69;4981610;28;20042;-48
2023/11/10 07:40:38;;;;;;;4.20;1.50;;;;;;;5.08;78.48;97728.63;4979463;28;20047;-49
2023/11/10 07:43:04;;;;;;;8.57;1.40;;;;;;;5.16;78.76;97732.75;4975308;28;20520;-46
2023/11/10 07:45:33;;;;;;;7.85;1.77;;;;;;;5.25;78.73;97735.16;4977072;28;20401;-46
2023/11/10 07:48:00;;;;;;;4.40;1.50;;;;;;;5.38;79.40;97741.72;4980197;28;20054;-46
2023/11/10 07:50:27;;;;;;;6.50;1.48;;;;;;;5.54;78.75;97733.75;4972488;28;20051;-42
2023/11/10 07:52:54;;;;;;;8.88;2.05;;;;;;;5.71;78.03;97741.09;4977389;28;20066;-47
2023/11/10 07:55:22;;;;;;;5.25;1.70;;;;;;;5.90;78.27;97738.16;4979381;28;20051;-47
2023/11/10 07:57:49;;;;;;;11.35;1.85;;;;;;;6.00;79.04;97742.25;4974298;28;20146;-43
2023/11/10 08:00:18;;;;;;;6.63;1.80;;;;;;;6.06;77.87;97746.44;4971413;28;20054;-47
2023/11/10 08:02:51;;;;;;;6.50;1.40;;;;;;;6.08;78.80;97749.81;4975860;28;20130;-40
2023/11/10 08:05:20;;;;;;;5.30;1.60;;;;;;;6.09;78.19;97756.66;4974536;28;20143;-47
2023/11/10 08:07:55;;;;;;;4.88;1.48;;;;;;;6.10;77.88;97763.47;4971650;28;20082;-43
2023/11/10 08:10:22;;;;;;;7.20;1.95;;;;;;;6.10;77.62;97768.63;4976842;28;20046;-47
2023/11/10 08:12:49;;;;;;;4.10;1.50;;;;;;;6.08;79.09;97777.25;4974827;28;20073;-42
2023/11/10 08:15:16;;;;;;;4.18;1.48;;;;;;;6.09;77.73;97782.34;4975938;28;20052;-47
2023/11/10 08:17:43;;;;;;;4.47;1.13;;;;;;;6.08;78.98;97796.06;4975819;28;20050;-44
2023/11/10 08:20:10;;;;;;;6.15;1.60;;;;;;;6.09;78.01;97792.63;4981476;28;20418;-43
2023/11/10 08:22:37;;;;;;;4.00;1.73;;;;;;;6.09;78.98;97800.34;4982071;28;20398;-53
2023/11/10 08:25:05;;;;;;;7.90;1.45;;;;;;;6.09;78.01;97797.78;4976974;28;20424;-43
2023/11/10 08:27:33;;;;;;;6.35;1.77;;;;;;;6.10;77.43;97803.75;4974464;28;20047;-41
2023/11/10 08:30:00;;;;;;;5.90;1.77;;;;;;;6.13;78.93;97807.13;4975800;28;20061;-48
2023/11/10 08:32:28;;;;;;;7.25;1.50;;;;;;;6.16;78.11;97808.78;4976140;28;20077;-48
2023/11/10 08:34:56;;;;;;;5.50;1.95;;;;;;;6.19;78.86;97813.84;4980146;28;20050;-42
2023/11/10 08:37:24;;;;;;;7.07;1.60;;;;;;;6.24;78.23;97808.59;4988195;28;20054;-45
2023/11/10 08:39:51;;;;;;;3.80;1.63;;;;;;;6.32;78.34;97808.44;4982226;28;20049;-44
2023/11/10 08:42:17;;;;;;;7.35;1.50;;;;;;;6.37;77.47;97811.75;4981485;28;20134;-48
2023/11/10 08:44:46;;;;;;;6.63;1.83;;;;;;;6.41;77.06;97816.81;4983664;28;20416;-40
2023/11/10 08:47:13;;;;;;;4.35;1.63;;;;;;;6.46;77.43;97821.00;4983248;28;20057;-45
2023/11/10 08:49:44;;;;;;;5.65;2.50;;;;;;;6.50;77.49;97822.63;4975475;28;20055;-43
2023/11/10 08:52:13;;;;;;;5.88;1.77;;;;;;;6.58;77.02;97832.75;4972849;28;20145;-44
2023/11/10 08:54:40;;;;;;;9.48;2.42;;;;;;;6.66;78.57;97848.88;4977398;28;20054;-41
2023/11/10 08:57:08;;;;;;;10.02;2.22;;;;;;;6.76;77.30;97854.66;4978103;28;20513;-45
2023/11/10 08:59:34;;;;;;;3.47;1.80;;;;;;;6.92;78.27;97861.13;4976573;28;20046;-51
2023/11/10 09:02:01;;;;;;;4.20;1.50;;;;;;;6.98;78.11;97861.84;4983042;28;20042;-40
2023/11/10 09:04:28;;;;;;;4.97;1.92;;;;;;;6.92;77.60;97865.41;4979976;28;20046;-49
2023/11/10 09:06:55;;;;;;;4.35;1.60;;;;;;;6.90;77.19;97877.47;4977438;28;20050;-41
2023/11/10 09:09:22;;;;;;;5.07;1.40;;;;;;;6.86;77.91;97881.84;4974355;28;20101;-45
2023/11/10 09:11:49;;;;;;;4.47;1.90;;;;;;;6.84;77.35;97881.03;4980440;28;20057;-44
2023/11/10 09:14:15;;;;;;;7.30;2.53;;;;;;;6.83;78.08;97889.66;4983935;28;20051;-44
2023/11/10 09:16:44;;;;;;;8.48;2.30;;;;;;;6.83;77.68;97887.06;4981364;28;20055;-45
2023/11/10 09:19:11;;;;;;;8.10;1.88;;;;;;;6.87;77.59;97888.69;4977184;28;20134;-44
2023/11/10 09:21:38;;;;;;;6.05;2.17;;;;;;;6.89;78.66;97886.09;4982455;28;20050;-42
2023/11/10 09:24:06;;;;;;;8.73;2.25;;;;;;;6.89;78.91;97894.63;4974107;28;20085;-47
2023/11/10 09:26:34;;;;;;;12.43;2.67;;;;;;;6.93;78.18;97892.88;4977472;28;20397;-45
2023/11/10 09:29:01;;;;;;;11.35;2.53;;;;;;;6.96;78.56;97899.66;4978300;28;20481;-42
2023/11/10 09:31:28;;;;;;;8.90;3.13;;;;;;;6.95;79.13;97901.38;4980708;28;20054;-43
2023/11/10 09:33:55;;;;;;;6.30;2.55;;;;;;;6.97;77.95;97906.50;4964119;28;20046;-48
2023/11/10 09:36:24;;;;;;;8.32;2.00;;;;;;;6.97;79.92;97911.63;4977444;28;20058;-42
2023/11/10 09:38:52;;;;;;;8.30;2.25;;;;;;;6.99;79.64;97917.63;4971146;28;20149;-53
2023/11/10 09:41:23;;;;;;;10.85;2.45;;;;;;;7.02;78.40;97927.81;4979714;28;20042;-51
2023/11/10 09:43:53;;;;;;;6.88;2.30;;;;;;;7.00;78.58;97927.03;4978576;28;20073;-50
2023/11/10 09:46:21;;;;;;;11.35;3.38;;;;;;;7.00;79.52;97929.59;4975868;28;20488;-52
2023/11/10 09:48:49;;;;;;;10.00;2.80;;;;;;;6.98;79.37;97932.19;4984184;28;20069;-45
2023/11/10 09:51:19;;;;;;;13.10;3.80;;;;;;;6.96;79.00;97933.13;4987313;28;20081;-44
2023/11/10 09:53:47;;;;;;;7.95;3.58;;;;;;;6.94;79.77;97941.72;4989779;28;20053;-50
2023/11/10 09:56:14;;;;;;;10.43;4.10;;;;;;;6.94;78.88;97939.16;4971304;28;20046;-48
2023/11/10 09:58:41;;;;;;;9.38;3.47;;;;;;;6.93;80.26;97937.44;4977751;28;20177;-42
2023/11/10 10:01:08;;;;;;;11.80;4.68;;;;;;;6.92;80.34;97937.47;4980429;28;20050;-45
2023/11/10 10:03:36;;;;;;;10.30;3.25;;;;;;;6.92;79.20;97942.63;4975316;28;20055;-49
2023/11/10 10:06:03;;;;;;;11.57;4.05;;;;;;;6.89;80.31;97948.69;4960878;28;20062;-45
2023/11/10 10:08:30;;;;;;;10.73;3.65;;;;;;;6.91;79.56;97957.22;4979423;28;20113;-46
2023/11/10 10:10:57;;;;;;;11.82;4.00;;;;;;;6.91;78.84;97962.38;4976672;28;20051;-40
2023/11/10 10:13:26;;;;;;;15.38;4.18;;;;;;;6.94;79.30;97962.31;4981884;28;20077;-46
2023/11/10 10:15:54;;;;;;;21.80;4.95;;;;;;;6.95;79.52;97968.28;4977046;28;20141;-47
2023/11/10 10:18:22;;;;;;;13.55;4.25;;;;;;;7.01;79.25;97964.75;4983567;28;20133;-44
2023/11/10 10:20:58;;;;;;;9.40;2.95;;;;;;;7.01;79.81;97977.63;4982150;28;20050;-46
2023/11/10 10:23:27;;;;;;;7.00;2.70;;;;;;;7.02;79.66;97980.16;4971579;28;20055;-44
2023/11/10 10:25:55;;;;;;;14.15;4.43;;;;;;;7.07;79.25;97977.50;4978833;28;20070;-44
2023/11/10 10:28:23;;;;;;;7.40;3.20;;;;;;;7.15;80.22;97978.16;4978743;28;20046;-45
2023/11/10 10:30:50;;;;;;;7.35;3.00;;;;;;;7.50;79.99;97985.94;4980760;28;20054;-50
2023/11/10 10:33:18;;;;;;;16.48;4.75;;;;;;;7.75;79.40;97984.53;4982361;28;20797;-43
2023/11/10 10:35:45;;;;;;;6.47;2.92;;;;;;;8.06;78.47;97984.63;4986399;28;20492;-43
2023/11/10 10:38:14;;;;;;;7.95;2.03;;;;;;;8.21;77.83;97998.81;4970125;28;20061;-49
2023/11/10 10:40:43;;;;;;;13.48;3.03;;;;;;;8.26;77.79;98005.59;4983206;28;20144;-45
2023/11/10 10:43:11;;;;;;;10.95;3.78;;;;;;;8.30;76.89;98013.22;4978866;28;20066;-46
2023/11/10 10:45:39;;;;;;;7.20;3.45;;;;;;;8.33;77.46;98020.03;4975829;28;20141;-47
2023/11/10 10:48:08;;;;;;;12.65;3.83;;;;;;;8.38;77.13;98015.63;4975286;28;20515;-49
2023/11/10 10:50:37;;;;;;;8.40;2.60;;;;;;;8.45;76.34;98017.13;4977195;28;20046;-51
2023/11/10 10:53:07;;;;;;;8.50;2.30;;;;;;;8.54;75.98;98020.41;4976441;28;20143;-45
2023/11/10 10:55:37;;;;;;;5.80;2.38;;;;;;;8.52;76.82;98017.81;4970440;28;20237;-45
2023/11/10 10:58:04;;;;;;;7.15;2.78;;;;;;;8.56;76.08;98028.94;4975176;28;20065;-47
2023/11/10 11:00:32;;;;;;;11.50;3.35;;;;;;;8.69;76.33;98024.28;4975835;28;20042;-46
2023/11/10 11:09:12;;;;;;;9.68;4.53;;;;;;;8.82;75.58;98043.69;4991394;28;20419;-45
2023/11/10 11:14:39;;;;;;;9.90;3.85;;;;;;;9.19;75.02;98046.94;5073981;27;20939;-51
2023/11/10 11:19:53;;;;;;;9.90;2.90;;;;;;;9.32;75.02;98062.94;5040350;28;20761;-44
2023/11/10 11:22:19;;;;;;;6.68;2.80;;;;;;;9.35;74.52;98059.41;4994801;28;20415;-43
2023/11/10 11:24:46;;;;;;;8.68;3.58;;;;;;;9.30;74.72;98061.28;4990918;28;20717;-44
2023/11/10 11:27:22;;;;;;;7.03;3.33;;;;;;;9.26;74.44;98066.53;4993799;28;20050;-45
2023/11/10 11:29:55;;;;;;;8.07;4.10;;;;;;;9.30;74.44;98066.47;4994534;28;20061;-45
2023/11/10 11:32:25;;;;;;;3.88;3.10;;;;;;;9.24;73.42;98068.34;4985689;28;20050;-49
2023/11/10 11:34:53;;;;;;;5.30;2.45;;;;;;;9.25;72.76;98072.63;5002879;28;20048;-47
2023/11/10 11:37:20;;;;;;;5.10;2.40;;;;;;;9.22;72.88;98074.44;4989028;28;20051;-44
2023/11/10 11:39:53;;;;;;;3.63;1.63;;;;;;;9.19;72.43;98075.38;4990002;28;20105;-46
2023/11/10 11:42:21;;;;;;;2.80;2.22;;;;;;;9.10;71.74;98081.66;5001631;28;20047;-46
2023/11/10 11:44:57;;;;;;;3.30;2.88;;;;;;;9.13;72.31;98083.31;4992662;28;20050;-46
2023/11/10 11:47:24;;;;;;;5.07;3.00;;;;;;;9.05;71.81;98095.59;4992809;28;20051;-52
2023/11/10 11:49:51;;;;;;;2.78;1.70;;;;;;;9.05;71.94;98090.44;4999397;28;20470;-45
2023/11/10 11:52:19;;;;;;;4.13;3.78;;;;;;;8.98;70.92;98093.16;4997538;28;20074;-47
2023/11/10 11:54:46;;;;;;;2.63;1.50;;;;;;;8.96;70.43;98107.88;5001108;28;20042;-50